Time;durP1;ratioP1;P1;durP2;ratioP2;P2;SDS_P1;SDS_P2;PMS_P1;PMS_P2;Temp;Humidity;BMP_temperature;BMP_pressure;BME280_temperature;BME280_humidity;BME280_pressure;Samples;Min_cycle;Max_cycle;Signal;HPM_P1;HPM_P2
2022/04/20 00:01:12;;;;;;;;;59.75;48.25;11.70;80.60;;;;;;5096672;28;8786;-58
2022/04/20 00:03:41;;;;;;;;;53.25;45.25;12.40;74.60;;;;;;5096678;28;8810;-60
2022/04/20 00:06:06;;;;;;;;;42.50;39.25;12.60;71.90;;;;;;5096520;28;8811;-59
2022/04/20 00:08:33;;;;;;;;;50.50;43.00;12.40;68.90;;;;;;5096816;28;8838;-60
2022/04/20 00:10:59;;;;;;;;;52.75;43.25;12.10;69.20;;;;;;5096745;28;8756;-61
2022/04/20 00:13:25;;;;;;;;;54.25;45.75;12.50;66.80;;;;;;5096516;28;8764;-60
2022/04/20 00:15:51;;;;;;;;;55.25;46.75;12.60;70.10;;;;;;5097691;28;8805;-59
2022/04/20 00:18:17;;;;;;;;;52.75;42.00;12.70;68.80;;;;;;5102226;28;8953;-59
2022/04/20 00:20:43;;;;;;;;;43.50;40.25;12.90;67.00;;;;;;5105022;28;8787;-60
2022/04/20 00:23:09;;;;;;;;;52.75;44.00;13.00;65.60;;;;;;5096154;28;8796;-59
2022/04/20 00:25:35;;;;;;;;;54.00;45.50;12.70;64.60;;;;;;5096558;28;8827;-59
2022/04/20 00:28:01;;;;;;;;;61.50;50.00;12.60;65.30;;;;;;5096450;28;8794;-59
2022/04/20 00:30:26;;;;;;;;;58.00;48.00;12.90;64.60;;;;;;5096425;28;8759;-58
2022/04/20 00:32:52;;;;;;;;;58.75;49.25;12.60;66.20;;;;;;5096356;28;8768;-58
2022/04/20 00:35:18;;;;;;;;;57.00;45.50;12.50;67.10;;;;;;5096068;28;8791;-59
2022/04/20 00:37:45;;;;;;;;;57.50;47.50;11.90;72.00;;;;;;5096242;28;8763;-56
2022/04/20 00:40:12;;;;;;;;;54.00;44.75;11.60;77.60;;;;;;5096122;28;8779;-58
2022/04/20 00:42:41;;;;;;;;;54.00;45.50;11.50;77.80;;;;;;5095747;28;8791;-59
2022/04/20 00:45:09;;;;;;;;;51.50;43.25;11.80;75.20;;;;;;5096344;28;8889;-58
2022/04/20 00:47:41;;;;;;;;;50.50;42.00;11.60;76.80;;;;;;5095809;28;8772;-58
2022/04/20 00:50:07;;;;;;;;;42.75;39.50;11.80;76.40;;;;;;5096006;28;8794;-58
2022/04/20 00:52:33;;;;;;;;;55.75;44.50;11.80;76.20;;;;;;5095975;28;8771;-57
2022/04/20 00:54:59;;;;;;;;;50.00;41.00;12.10;73.60;;;;;;5095935;28;8800;-57
2022/04/20 00:57:25;;;;;;;;;46.00;39.50;12.40;72.10;;;;;;5095853;28;8751;-57
2022/04/20 00:59:55;;;;;;;;;37.75;36.75;12.70;70.40;;;;;;5096029;28;8756;-59
2022/04/20 01:02:22;;;;;;;;;36.75;35.25;12.80;68.20;;;;;;5095631;28;8791;-57
2022/04/20 01:04:48;;;;;;;;;36.50;34.25;12.90;68.40;;;;;;5095305;28;8790;-57
2022/04/20 01:07:16;;;;;;;;;42.00;37.50;12.90;67.50;;;;;;5095672;28;8779;-57
2022/04/20 01:09:43;;;;;;;;;34.25;33.25;13.10;66.20;;;;;;5095670;28;8837;-56
2022/04/20 01:12:10;;;;;;;;;40.25;35.25;13.00;65.50;;;;;;5095661;28;8828;-57
2022/04/20 01:14:36;;;;;;;;;39.25;37.00;12.90;66.50;;;;;;5095533;28;8791;-57
2022/04/20 01:17:03;;;;;;;;;47.75;38.75;12.90;65.70;;;;;;5095577;28;8764;-57
2022/04/20 01:19:40;;;;;;;;;58.00;46.75;13.00;65.90;;;;;;5095201;28;8841;-58
2022/04/20 01:22:07;;;;;;;;;56.00;46.50;12.30;70.30;;;;;;5095058;28;8814;-58
2022/04/20 01:24:34;;;;;;;;;56.00;47.25;12.20;73.20;;;;;;5095426;28;8904;-58
2022/04/20 01:27:01;;;;;;;;;64.00;50.25;12.60;71.80;;;;;;5095056;28;8860;-56
2022/04/20 01:29:28;;;;;;;;;58.50;48.25;12.90;70.20;;;;;;5095034;28;8783;-56
2022/04/20 01:31:54;;;;;;;;;51.25;43.00;12.80;69.30;;;;;;5095009;28;8843;-58
2022/04/20 01:34:20;;;;;;;;;51.50;42.00;12.60;69.30;;;;;;5094933;28;8860;-57
2022/04/20 01:36:46;;;;;;;;;51.00;43.00;12.70;68.90;;;;;;5095165;28;8784;-58
2022/04/20 01:39:12;;;;;;;;;56.25;46.50;12.90;68.00;;;;;;5094974;28;8752;-56
2022/04/20 01:41:37;;;;;;;;;59.75;48.25;13.00;67.30;;;;;;5094846;28;8897;-59
2022/04/20 01:44:04;;;;;;;;;60.50;47.75;12.80;67.50;;;;;;5095108;28;8926;-57
2022/04/20 01:46:29;;;;;;;;;58.25;48.00;12.90;68.40;;;;;;5094976;28;9461;-56
2022/04/20 01:48:55;;;;;;;;;56.25;45.50;12.80;69.10;;;;;;5095077;28;8752;-58
2022/04/20 01:54:06;;;;;;;;;57.50;47.25;12.90;69.90;;;;;;5095007;28;8910;-57
2022/04/20 01:56:31;;;;;;;;;54.00;44.00;12.80;70.30;;;;;;5076765;28;8799;-59
2022/04/20 01:58:57;;;;;;;;;61.50;52.00;12.70;69.20;;;;;;5094892;28;8792;-57
2022/04/20 02:04:07;;;;;;;;;62.75;51.50;12.60;70.80;;;;;;5094699;28;8755;-60
2022/04/20 02:06:33;;;;;;;;;64.25;52.00;12.20;74.20;;;;;;5094639;28;8818;-59
2022/04/20 02:08:59;;;;;;;;;58.75;49.00;12.20;76.50;;;;;;5094760;28;8756;-59
2022/04/20 02:11:25;;;;;;;;;56.50;47.25;12.60;74.50;;;;;;5094404;28;9492;-59
2022/04/20 02:13:50;;;;;;;;;59.00;50.00;12.60;74.00;;;;;;5094709;28;8778;-58
2022/04/20 02:16:16;;;;;;;;;54.50;46.25;12.70;73.70;;;;;;5094413;28;9473;-59
2022/04/20 02:18:42;;;;;;;;;56.25;46.75;12.80;72.70;;;;;;5098886;28;8888;-58
2022/04/20 02:21:07;;;;;;;;;55.00;46.75;12.80;72.60;;;;;;5098894;28;8780;-58
2022/04/20 02:23:33;;;;;;;;;52.50;45.00;12.80;72.90;;;;;;5098337;28;8815;-59
2022/04/20 02:25:59;;;;;;;;;55.00;45.00;12.80;72.80;;;;;;5098511;28;8826;-58
2022/04/20 02:28:25;;;;;;;;;52.50;44.00;12.80;72.70;;;;;;5098741;28;8767;-59
2022/04/20 02:30:50;;;;;;;;;55.75;45.25;12.90;72.40;;;;;;5098423;28;9473;-60
2022/04/20 02:33:16;;;;;;;;;59.25;48.00;12.50;73.20;;;;;;5098470;28;8844;-58
2022/04/20 02:35:43;;;;;;;;;48.25;42.00;11.40;84.10;;;;;;5098374;28;8791;-58
2022/04/20 02:38:11;;;;;;;;;54.00;44.00;10.80;99.90;;;;;;5098645;28;8858;-57
2022/04/20 02:40:38;;;;;;;;;54.25;45.75;11.40;94.70;;;;;;5098352;28;8756;-58
2022/04/20 02:43:04;;;;;;;;;55.75;47.00;11.90;86.30;;;;;;5098529;28;8778;-58
2022/04/20 02:45:30;;;;;;;;;57.00;48.00;12.10;83.60;;;;;;5098079;28;8803;-55
2022/04/20 02:47:56;;;;;;;;;55.75;47.25;12.30;78.10;;;;;;5098390;28;8866;-56
2022/04/20 02:50:21;;;;;;;;;55.25;44.75;12.50;75.60;;;;;;5098093;28;8786;-58
2022/04/20 02:52:47;;;;;;;;;51.50;44.00;12.50;76.00;;;;;;5098087;28;8783;-58
2022/04/20 02:55:13;;;;;;;;;49.00;41.25;12.50;74.50;;;;;;5097892;28;8923;-57
2022/04/20 02:57:38;;;;;;;;;56.25;46.25;12.60;74.70;;;;;;5098210;28;8763;-58
2022/04/20 03:00:05;;;;;;;;;54.00;44.00;12.60;74.70;;;;;;5097914;28;9409;-56
2022/04/20 03:02:31;;;;;;;;;56.50;45.25;12.60;73.10;;;;;;5097909;28;8772;-58
2022/04/20 03:04:57;;;;;;;;;52.00;44.75;12.30;72.60;;;;;;5098018;28;8779;-58
2022/04/20 03:07:23;;;;;;;;;50.25;42.00;12.20;74.90;;;;;;5097965;28;8771;-55
2022/04/20 03:09:49;;;;;;;;;52.50;45.00;12.30;76.30;;;;;;5097729;28;8867;-56
2022/04/20 03:12:14;;;;;;;;;58.25;47.75;11.50;84.10;;;;;;5097852;28;8748;-58
2022/04/20 03:14:40;;;;;;;;;57.25;46.50;11.80;84.10;;;;;;5097900;28;8772;-56
2022/04/20 03:17:06;;;;;;;;;53.00;45.00;12.10;82.40;;;;;;5080096;28;8852;-56
2022/04/20 03:19:32;;;;;;;;;50.25;43.25;12.20;78.80;;;;;;5097809;28;8785;-57
2022/04/20 03:21:58;;;;;;;;;52.25;45.00;12.10;77.00;;;;;;5097413;28;8799;-56
2022/04/20 03:24:24;;;;;;;;;47.75;41.25;12.10;77.70;;;;;;5097701;28;8804;-57
2022/04/20 03:26:50;;;;;;;;;50.00;40.50;12.10;77.20;;;;;;5097611;28;8975;-57
2022/04/20 03:29:15;;;;;;;;;48.00;42.00;12.00;77.90;;;;;;5097200;28;8792;-58
2022/04/20 03:31:41;;;;;;;;;36.25;34.00;12.10;76.90;;;;;;5100859;28;8815;-54
2022/04/20 03:34:07;;;;;;;;;40.75;38.75;11.30;75.70;;;;;;5113180;28;8776;-56
2022/04/20 03:36:34;;;;;;;;;30.00;29.50;10.60;85.10;;;;;;5097233;28;8791;-56
2022/04/20 03:39:01;;;;;;;;;38.25;34.25;10.40;85.50;;;;;;5106291;27;8892;-56
2022/04/20 03:41:27;;;;;;;;;31.75;31.50;10.40;91.20;;;;;;5104410;28;8841;-56
2022/04/20 03:43:53;;;;;;;;;39.75;33.00;10.40;88.10;;;;;;5104307;28;8792;-56
2022/04/20 03:46:18;;;;;;;;;36.50;34.25;10.50;91.50;;;;;;5096935;28;8854;-58
2022/04/20 03:48:45;;;;;;;;;39.00;35.25;10.60;88.40;;;;;;5096952;28;8890;-59
2022/04/20 03:51:11;;;;;;;;;38.75;35.50;10.40;92.20;;;;;;5096978;28;8756;-56
2022/04/20 03:53:37;;;;;;;;;37.75;36.25;10.30;93.40;;;;;;5096772;28;8767;-55
2022/04/20 03:56:03;;;;;;;;;42.00;38.00;10.00;99.90;;;;;;5096947;28;8771;-56
2022/04/20 03:58:29;;;;;;;;;40.25;37.00;9.90;99.90;;;;;;5097039;28;8797;-56
2022/04/20 04:00:55;;;;;;;;;35.50;34.25;10.00;99.90;;;;;;5096988;28;8771;-56
2022/04/20 04:03:21;;;;;;;;;34.25;34.25;9.60;99.90;;;;;;5096981;28;9739;-56
2022/04/20 04:05:46;;;;;;;;;39.00;35.50;9.50;99.90;;;;;;5096985;28;8787;-56
2022/04/20 04:08:12;;;;;;;;;35.75;34.00;9.70;99.90;;;;;;5096640;28;8767;-57
2022/04/20 04:10:38;;;;;;;;;38.50;35.50;10.00;99.90;;;;;;5096601;28;8768;-57
2022/04/20 04:13:03;;;;;;;;;37.50;34.50;10.30;99.90;;;;;;5096921;28;9460;-57
2022/04/20 04:15:30;;;;;;;;;30.75;28.50;10.80;99.90;;;;;;5112557;28;8787;-57
2022/04/20 04:17:58;;;;;;;;;37.50;36.50;11.20;99.90;;;;;;5116868;28;8763;-56
2022/04/20 04:20:26;;;;;;;;;30.75;30.50;10.50;99.90;;;;;;5116716;28;8771;-56
2022/04/20 04:22:52;;;;;;;;;39.50;36.50;10.50;99.90;;;;;;5116430;28;8779;-54
2022/04/20 04:25:18;;;;;;;;;43.50;38.50;10.60;99.90;;;;;;5117215;28;8815;-56
2022/04/20 04:27:44;;;;;;;;;41.75;37.75;10.70;99.90;;;;;;5117009;28;9485;-58
2022/04/20 04:30:10;;;;;;;;;39.25;36.75;11.00;99.90;;;;;;5116973;28;8750;-58
2022/04/20 04:32:36;;;;;;;;;48.50;41.50;11.10;99.90;;;;;;5116878;28;9420;-56
2022/04/20 04:35:02;;;;;;;;;45.75;38.50;11.30;99.90;;;;;;5116685;28;8759;-57
2022/04/20 04:37:28;;;;;;;;;45.50;40.25;11.30;99.90;;;;;;5116811;28;8767;-57
2022/04/20 04:39:54;;;;;;;;;36.00;34.00;11.60;99.90;;;;;;5111343;27;8757;-56
2022/04/20 04:42:20;;;;;;;;;49.25;42.25;11.70;99.90;;;;;;5100542;28;8842;-57
2022/04/20 04:44:45;;;;;;;;;47.50;41.00;11.50;99.90;;;;;;5129107;27;8882;-56
2022/04/20 04:49:57;;;;;;;;;39.00;37.00;11.00;99.90;;;;;;5136947;27;8716;-60
2022/04/20 04:52:23;;;;;;;;;47.75;39.50;10.70;99.90;;;;;;5130788;27;8777;-57
2022/04/20 04:54:49;;;;;;;;;48.25;42.00;10.80;99.90;;;;;;5105590;28;8792;-57
2022/04/20 04:57:14;;;;;;;;;43.25;39.00;10.40;99.90;;;;;;5095551;28;8783;-56
2022/04/20 04:59:42;;;;;;;;;49.00;40.25;10.40;99.90;;;;;;5106258;28;8791;-55
2022/04/20 05:02:08;;;;;;;;;42.75;38.50;10.30;99.90;;;;;;5095622;28;8837;-56
2022/04/20 05:04:35;;;;;;;;;35.00;30.50;9.90;99.90;;;;;;5095837;28;8775;-55
2022/04/20 05:07:02;;;;;;;;;45.00;39.75;10.20;99.90;;;;;;5099457;28;8838;-56
2022/04/20 05:09:28;;;;;;;;;31.00;29.25;10.30;99.90;;;;;;5123885;27;8806;-59
2022/04/20 05:11:54;;;;;;;;;49.25;40.00;10.40;99.90;;;;;;5136208;27;8756;-61
2022/04/20 05:14:20;;;;;;;;;42.25;37.75;10.30;99.90;;;;;;5129245;27;8776;-59
2022/04/20 05:16:46;;;;;;;;;47.00;41.00;10.40;99.90;;;;;;5135599;27;8803;-61
2022/04/20 05:19:12;;;;;;;;;54.00;43.75;10.60;99.90;;;;;;5117406;27;8796;-59
2022/04/20 05:21:38;;;;;;;;;39.00;37.25;10.80;99.90;;;;;;5115283;28;8820;-60
2022/04/20 05:24:05;;;;;;;;;28.25;28.00;10.60;99.90;;;;;;5115466;28;8777;-61
2022/04/20 05:26:31;;;;;;;;;29.75;29.75;10.20;99.90;;;;;;5113741;28;8824;-60
2022/04/20 05:28:56;;;;;;;;;29.25;28.00;9.80;99.90;;;;;;5097546;28;8824;-60
2022/04/20 05:31:22;;;;;;;;;49.75;40.00;10.10;99.90;;;;;;5115668;28;8769;-60
2022/04/20 05:33:49;;;;;;;;;49.25;40.50;10.80;99.90;;;;;;5115587;28;8785;-60
2022/04/20 05:36:18;;;;;;;;;44.50;39.75;11.20;99.90;;;;;;5097285;28;8902;-61
2022/04/20 05:41:40;;;;;;;;;39.25;35.75;11.60;99.90;;;;;;5095044;28;8787;-57
2022/04/20 05:44:11;;;;;;;;;43.50;40.00;11.70;99.90;;;;;;5094933;28;8779;-56
2022/04/20 05:46:38;;;;;;;;;50.50;42.00;12.00;99.90;;;;;;5095055;28;8887;-56
2022/04/20 05:49:04;;;;;;;;;56.00;45.50;12.00;99.90;;;;;;5094354;28;8748;-55
2022/04/20 05:51:30;;;;;;;;;51.75;44.50;11.90;99.90;;;;;;5094810;28;8760;-56
2022/04/20 05:53:56;;;;;;;;;54.00;44.75;12.10;99.90;;;;;;5094766;28;8885;-59
2022/04/20 05:56:22;;;;;;;;;44.75;40.25;12.30;99.90;;;;;;5094573;28;9366;-56
2022/04/20 05:58:50;;;;;;;;;48.50;39.75;12.20;99.90;;;;;;5094545;28;8775;-56
2022/04/20 06:01:17;;;;;;;;;46.50;36.50;11.80;99.90;;;;;;5094624;28;8785;-57
2022/04/20 06:03:42;;;;;;;;;44.50;38.50;11.90;99.90;;;;;;5094060;28;8913;-56
2022/04/20 06:06:08;;;;;;;;;41.00;38.00;11.60;99.90;;;;;;5094414;28;8812;-57
2022/04/20 06:08:34;;;;;;;;;34.50;32.50;11.50;99.90;;;;;;5094642;28;8799;-55
2022/04/20 06:11:00;;;;;;;;;31.50;28.00;11.50;99.90;;;;;;5094727;28;8771;-55
2022/04/20 06:13:28;;;;;;;;;36.25;33.00;11.70;99.90;;;;;;5094386;28;8779;-56
2022/04/20 06:15:54;;;;;;;;;35.25;33.00;12.10;99.90;;;;;;5094658;28;8803;-54
2022/04/20 06:18:21;;;;;;;;;32.50;30.25;12.20;99.90;;;;;;5093953;28;8760;-57
2022/04/20 06:20:47;;;;;;;;;30.75;28.25;12.00;99.90;;;;;;5094682;28;8776;-55
2022/04/20 06:23:13;;;;;;;;;28.25;26.50;12.10;99.90;;;;;;5094352;28;8804;-57
2022/04/20 06:25:39;;;;;;;;;27.25;25.75;12.10;99.90;;;;;;5094651;28;8831;-56
2022/04/20 06:28:06;;;;;;;;;22.50;22.50;12.10;99.90;;;;;;5094619;28;8776;-57
2022/04/20 06:30:32;;;;;;;;;22.00;21.50;12.20;99.90;;;;;;5094371;28;8840;-56
2022/04/20 06:32:58;;;;;;;;;22.00;21.75;12.10;99.90;;;;;;5094087;28;8756;-57
2022/04/20 06:35:23;;;;;;;;;26.00;24.00;11.90;99.90;;;;;;5094258;28;8760;-56
2022/04/20 06:37:50;;;;;;;;;24.50;24.25;12.10;99.90;;;;;;5094428;28;8786;-55
2022/04/20 06:40:16;;;;;;;;;22.50;22.00;12.30;99.90;;;;;;5094513;28;8764;-56
2022/04/20 06:42:42;;;;;;;;;21.25;21.25;11.40;99.90;;;;;;5094220;28;8782;-57
2022/04/20 06:45:08;;;;;;;;;22.00;18.50;11.10;99.90;;;;;;5094609;28;8786;-57
2022/04/20 06:47:35;;;;;;;;;20.75;20.75;11.40;99.90;;;;;;5093894;28;8755;-57
2022/04/20 06:50:01;;;;;;;;;18.75;18.75;11.50;99.90;;;;;;5094187;28;8752;-57
2022/04/20 07:00:39;;;;;;;;;19.25;19.25;9.80;99.90;;;;;;5093907;28;8760;-58
2022/04/20 07:03:09;;;;;;;;;18.25;18.25;10.20;99.90;;;;;;5095182;28;8853;-58
2022/04/20 07:05:35;;;;;;;;;15.25;14.00;10.00;99.90;;;;;;5097919;28;8795;-57
2022/04/20 07:08:01;;;;;;;;;14.00;14.00;9.90;99.90;;;;;;5097942;28;9420;-59
2022/04/20 07:10:28;;;;;;;;;16.00;16.00;9.80;99.90;;;;;;5097750;28;8866;-59
2022/04/20 07:12:54;;;;;;;;;18.50;18.00;10.00;99.90;;;;;;5097968;28;8775;-57
2022/04/20 07:15:20;;;;;;;;;19.75;17.75;10.30;99.90;;;;;;5097739;28;8790;-58
2022/04/20 07:17:46;;;;;;;;;21.00;19.75;10.80;99.90;;;;;;5097777;28;8755;-58
2022/04/20 07:20:18;;;;;;;;;21.75;21.00;10.60;99.90;;;;;;5097829;28;8760;-58
2022/04/20 07:22:48;;;;;;;;;29.75;26.50;10.70;99.90;;;;;;5097416;28;8815;-58
2022/04/20 07:25:16;;;;;;;;;32.25;30.00;10.50;99.90;;;;;;5097625;28;8814;-59
2022/04/20 07:27:42;;;;;;;;;30.50;30.00;10.60;99.90;;;;;;5097438;28;8779;-57
2022/04/20 07:30:08;;;;;;;;;32.75;30.50;11.00;99.90;;;;;;5097672;28;8752;-60
2022/04/20 07:32:34;;;;;;;;;28.75;26.50;10.80;99.90;;;;;;5097589;28;8782;-59
2022/04/20 07:34:59;;;;;;;;;28.50;26.50;10.80;99.90;;;;;;5097421;28;8752;-58
2022/04/20 07:37:25;;;;;;;;;32.25;28.00;10.40;99.90;;;;;;5097147;28;8780;-61
2022/04/20 07:39:51;;;;;;;;;29.50;29.00;10.30;99.90;;;;;;5097328;28;8783;-59
2022/04/20 07:42:21;;;;;;;;;30.75;28.75;10.00;99.90;;;;;;5097304;28;8787;-60
2022/04/20 07:44:47;;;;;;;;;36.00;35.00;9.90;99.90;;;;;;5097381;28;8911;-59
2022/04/20 07:47:12;;;;;;;;;39.25;35.00;9.60;99.90;;;;;;5096949;28;8807;-58
2022/04/20 07:52:23;;;;;;;;;42.00;36.50;9.70;99.90;;;;;;5096988;28;8748;-60
2022/04/20 07:54:49;;;;;;;;;49.00;42.75;9.50;99.90;;;;;;5097003;28;8833;-59
2022/04/20 07:57:15;;;;;;;;;48.75;40.25;9.60;99.90;;;;;;5097066;28;9457;-60
2022/04/20 07:59:44;;;;;;;;;49.75;42.00;9.80;99.90;;;;;;5096799;28;8764;-59
2022/04/20 08:02:10;;;;;;;;;45.25;38.50;9.90;99.90;;;;;;5096742;28;8906;-59
2022/04/20 08:04:36;;;;;;;;;27.75;26.00;9.80;99.90;;;;;;5096560;28;8891;-58
2022/04/20 08:07:02;;;;;;;;;32.00;30.50;9.60;99.90;;;;;;5095943;28;8880;-59
2022/04/20 08:09:27;;;;;;;;;31.25;28.25;9.70;99.90;;;;;;5096133;28;8748;-59
2022/04/20 08:11:53;;;;;;;;;27.75;26.25;10.00;99.90;;;;;;5096448;28;8751;-57
2022/04/20 08:14:20;;;;;;;;;30.50;30.50;9.80;99.90;;;;;;5094902;28;8851;-60
2022/04/20 08:16:47;;;;;;;;;25.50;25.00;9.80;99.90;;;;;;5096349;28;8759;-58
2022/04/20 08:19:12;;;;;;;;;22.75;20.50;9.80;99.90;;;;;;5096404;28;8771;-58
2022/04/20 08:21:38;;;;;;;;;26.25;26.25;10.00;99.90;;;;;;5095873;28;8804;-57
2022/04/20 08:24:04;;;;;;;;;32.75;29.00;10.00;99.90;;;;;;5096213;28;8815;-58
2022/04/20 08:26:30;;;;;;;;;48.00;40.25;9.70;99.90;;;;;;5095766;28;8880;-60
2022/04/20 08:28:56;;;;;;;;;45.00;38.50;10.20;99.90;;;;;;5096091;28;8771;-60
2022/04/20 08:31:22;;;;;;;;;42.25;36.00;10.20;99.90;;;;;;5096487;28;8786;-58
2022/04/20 08:33:47;;;;;;;;;34.00;32.75;10.50;99.90;;;;;;5096162;28;8780;-59
2022/04/20 08:36:13;;;;;;;;;35.50;33.00;10.50;99.90;;;;;;5095874;28;8768;-59
2022/04/20 08:38:40;;;;;;;;;31.50;31.50;10.70;99.90;;;;;;5095995;28;8902;-58
2022/04/20 08:41:09;;;;;;;;;27.00;27.00;10.60;99.90;;;;;;5095840;28;8772;-58
2022/04/20 08:43:36;;;;;;;;;21.75;18.75;10.50;99.90;;;;;;5096063;28;8755;-59
2022/04/20 08:46:03;;;;;;;;;21.00;20.25;10.90;99.90;;;;;;5095764;28;8807;-60
2022/04/20 08:48:29;;;;;;;;;17.00;16.50;11.20;99.90;;;;;;5095686;28;9429;-60
2022/04/20 08:50:56;;;;;;;;;14.75;13.50;11.50;99.90;;;;;;5095975;28;8751;-58
2022/04/20 08:53:23;;;;;;;;;14.50;14.50;11.80;99.90;;;;;;5095590;28;8790;-60
2022/04/20 08:57:15;;;;;;;;;22.50;21.25;12.00;99.90;;;;;;5095790;28;8803;-59
2022/04/20 08:58:37;;;;;;;;;21.25;21.00;11.80;99.90;;;;;;5095592;28;8787;-58
2022/04/20 09:01:04;;;;;;;;;18.25;18.00;12.00;99.90;;;;;;5095620;28;8768;-59
2022/04/20 09:03:31;;;;;;;;;22.25;19.75;12.20;87.80;;;;;;5095389;28;8772;-59
2022/04/20 09:05:57;;;;;;;;;24.00;21.25;12.10;88.20;;;;;;5095363;28;8849;-59
2022/04/20 09:08:25;;;;;;;;;21.50;21.00;12.10;89.60;;;;;;5095480;28;8763;-60
2022/04/20 09:10:52;;;;;;;;;33.25;29.50;12.30;86.90;;;;;;5095387;28;9406;-60
2022/04/20 09:13:30;;;;;;;;;22.50;22.50;12.40;88.80;;;;;;5095673;28;8747;-60
2022/04/20 09:16:07;;;;;;;;;24.25;22.25;11.70;90.70;;;;;;5095304;28;8786;-59
2022/04/20 09:18:34;;;;;;;;;25.50;25.00;11.40;90.90;;;;;;5095411;28;8760;-60
2022/04/20 09:21:17;;;;;;;;;15.50;15.50;10.90;95.10;;;;;;5095257;28;9438;-58
2022/04/20 09:23:43;;;;;;;;;20.00;20.00;10.50;98.90;;;;;;5095425;28;8791;-59
2022/04/20 09:26:11;;;;;;;;;15.00;15.00;10.50;99.90;;;;;;5094695;28;8849;-59
2022/04/20 09:29:01;;;;;;;;;27.00;23.00;10.60;99.90;;;;;;5095166;28;9377;-60
2022/04/20 09:31:43;;;;;;;;;17.00;16.50;10.70;99.90;;;;;;5094978;28;9397;-59
2022/04/20 09:34:09;;;;;;;;;14.00;14.00;10.90;99.50;;;;;;5094935;28;8768;-59
2022/04/20 09:36:45;;;;;;;;;16.25;15.00;11.20;95.10;;;;;;5095064;28;8779;-61
2022/04/20 09:39:12;;;;;;;;;14.75;12.75;11.40;91.50;;;;;;5095152;28;9471;-59
2022/04/20 09:42:02;;;;;;;;;21.00;19.75;11.70;88.00;;;;;;5094649;28;8860;-59
2022/04/20 09:44:31;;;;;;;;;22.75;20.25;11.80;90.20;;;;;;5094620;28;8894;-60
2022/04/20 09:50:02;;;;;;;;;22.50;22.25;12.30;83.60;;;;;;5094947;28;8725;-59
2022/04/20 09:52:44;;;;;;;;;19.75;19.00;12.40;86.60;;;;;;5095061;28;8876;-58
2022/04/20 09:55:32;;;;;;;;;19.00;18.50;12.40;88.50;;;;;;5095149;28;9453;-59
2022/04/20 09:58:21;;;;;;;;;23.00;23.00;12.80;86.70;;;;;;5094526;28;8798;-60
2022/04/20 10:00:54;;;;;;;;;30.00;29.25;13.20;83.80;;;;;;5094652;28;8767;-60
2022/04/20 10:03:24;;;;;;;;;32.75;31.00;13.50;72.40;;;;;;5094640;28;8740;-59
2022/04/20 10:05:50;;;;;;;;;28.75;28.50;13.70;76.00;;;;;;5094741;28;8791;-60
2022/04/20 10:08:18;;;;;;;;;31.25;31.00;14.30;70.60;;;;;;5094562;28;9540;-59
2022/04/20 10:10:46;;;;;;;;;31.00;29.25;14.10;72.00;;;;;;5094475;28;8767;-60
2022/04/20 10:13:12;;;;;;;;;29.50;28.25;13.80;76.70;;;;;;5094788;28;8760;-60
2022/04/20 10:18:25;;;;;;;;;33.25;32.75;13.20;77.70;;;;;;5094471;28;8736;-59
2022/04/20 10:20:56;;;;;;;;;32.25;30.00;13.10;69.40;;;;;;5094580;28;8779;-58
2022/04/20 10:23:23;;;;;;;;;31.25;29.50;13.00;69.10;;;;;;5094074;28;8826;-60
2022/04/20 10:25:51;;;;;;;;;35.75;33.25;12.80;69.80;;;;;;5094487;28;8896;-59
2022/04/20 10:28:36;;;;;;;;;42.00;36.75;13.00;73.60;;;;;;5094097;28;8810;-60
2022/04/20 10:31:40;;;;;;;;;41.25;36.00;13.50;70.10;;;;;;5094136;28;8752;-59
2022/04/20 10:34:07;;;;;;;;;38.25;33.50;13.90;68.30;;;;;;5093474;28;8767;-58
2022/04/20 10:36:34;;;;;;;;;33.00;31.00;13.40;63.80;;;;;;5094661;28;8763;-58
2022/04/20 10:39:34;;;;;;;;;42.25;35.75;12.30;67.40;;;;;;5097029;28;8744;-59
2022/04/20 10:42:11;;;;;;;;;30.50;30.00;12.20;71.60;;;;;;5016039;28;8871;-60
2022/04/20 10:45:07;;;;;;;;;33.00;31.75;12.90;69.40;;;;;;5016189;28;9446;-59
2022/04/20 10:47:36;;;;;;;;;34.00;32.75;13.20;66.50;;;;;;4938238;29;8817;-60
2022/04/20 10:50:21;;;;;;;;;35.00;32.75;12.90;66.50;;;;;;4938636;29;8785;-59
2022/04/20 10:52:48;;;;;;;;;41.25;36.25;12.20;70.60;;;;;;4938430;29;8818;-57
2022/04/20 10:55:14;;;;;;;;;37.75;34.50;11.40;74.80;;;;;;4938318;29;8856;-58
2022/04/20 10:57:41;;;;;;;;;37.00;34.25;11.40;77.30;;;;;;4938322;29;8852;-58
2022/04/20 11:00:16;;;;;;;;;41.00;37.00;12.10;75.60;;;;;;4938167;29;8991;-59
2022/04/20 11:02:53;;;;;;;;;49.50;41.75;12.40;72.00;;;;;;4938335;29;8780;-60
2022/04/20 11:05:21;;;;;;;;;49.00;42.00;12.30;69.50;;;;;;4938127;29;8875;-58
2022/04/20 11:08:00;;;;;;;;;46.00;38.25;12.60;66.20;;;;;;4938013;29;8773;-60
2022/04/20 11:10:27;;;;;;;;;45.75;39.00;12.30;69.90;;;;;;4937933;29;8777;-60
2022/04/20 11:19:09;;;;;;;;;49.75;41.50;13.10;67.80;;;;;;4981480;28;8899;-59
2022/04/20 11:21:35;;;;;;;;;55.75;46.00;12.60;68.20;;;;;;4995639;28;8881;-61
2022/04/20 11:24:08;;;;;;;;;53.25;45.25;13.40;65.90;;;;;;5050174;28;8814;-60
2022/04/20 11:26:39;;;;;;;;;50.00;42.25;13.80;63.90;;;;;;5097311;28;8815;-59
2022/04/20 11:29:17;;;;;;;;;45.75;39.00;14.20;62.80;;;;;;5097558;28;8776;-59
2022/04/20 11:31:45;;;;;;;;;49.50;42.25;14.50;61.00;;;;;;5097439;28;8821;-59
2022/04/20 11:34:12;;;;;;;;;45.50;39.00;15.00;59.20;;;;;;5097359;28;8765;-59
2022/04/20 11:36:43;;;;;;;;;49.00;40.75;14.30;58.40;;;;;;5097306;28;8776;-59
2022/04/20 11:39:11;;;;;;;;;45.50;39.00;14.20;60.30;;;;;;5097304;28;8772;-57
2022/04/20 11:41:38;;;;;;;;;46.00;38.50;13.90;61.60;;;;;;5097579;28;8862;-56
2022/04/20 11:44:20;;;;;;;;;47.75;39.25;13.10;62.50;;;;;;5097315;28;8740;-57
2022/04/20 11:46:46;;;;;;;;;54.00;45.75;12.80;64.70;;;;;;5096973;28;8872;-58
2022/04/20 11:49:12;;;;;;;;;52.00;44.00;13.10;63.20;;;;;;5096622;28;8764;-59
2022/04/20 11:51:43;;;;;;;;;47.25;40.75;12.70;64.50;;;;;;5097130;28;8783;-58
2022/04/20 11:54:09;;;;;;;;;53.00;43.50;12.70;65.70;;;;;;5097081;28;9524;-57
2022/04/20 11:56:37;;;;;;;;;55.00;46.25;13.10;66.60;;;;;;5097160;28;8763;-56
2022/04/20 11:59:06;;;;;;;;;47.25;40.75;13.50;64.20;;;;;;5096936;28;8756;-62
2022/04/20 12:01:33;;;;;;;;;48.75;41.75;13.10;64.60;;;;;;5097055;28;8764;-61
2022/04/20 12:04:04;;;;;;;;;48.50;40.75;12.70;64.80;;;;;;5096770;28;8764;-61
2022/04/20 12:06:30;;;;;;;;;51.75;44.00;12.80;66.50;;;;;;5097012;28;8779;-60
2022/04/20 12:08:56;;;;;;;;;55.00;45.75;13.20;64.40;;;;;;5096578;28;8755;-62
2022/04/20 12:11:22;;;;;;;;;51.75;43.75;14.20;63.60;;;;;;5107067;28;9550;-60
2022/04/20 12:13:55;;;;;;;;;51.00;43.50;15.10;59.40;;;;;;5115939;28;8894;-62
2022/04/20 12:16:23;;;;;;;;;52.75;44.00;14.20;57.40;;;;;;5115807;28;8788;-61
2022/04/20 12:18:49;;;;;;;;;68.25;53.75;14.40;59.10;;;;;;5115767;28;8812;-61
2022/04/20 12:21:36;;;;;;;;;53.00;43.75;15.10;57.40;;;;;;5113633;28;8784;-62
2022/04/20 12:24:03;;;;;;;;;48.50;40.50;15.20;55.60;;;;;;5114371;28;8795;-63
2022/04/20 12:26:30;;;;;;;;;49.25;42.25;14.80;55.90;;;;;;5115418;28;8783;-65
2022/04/20 12:29:03;;;;;;;;;46.00;38.75;15.20;56.10;;;;;;5115233;28;8766;-59
2022/04/20 12:31:30;;;;;;;;;48.00;40.50;15.50;54.80;;;;;;5113822;28;8905;-58
2022/04/20 12:34:07;;;;;;;;;53.50;43.00;15.30;51.60;;;;;;5115201;28;8813;-61
2022/04/20 12:36:53;;;;;;;;;87.75;87.50;15.10;52.80;;;;;;5109153;28;8850;-65
2022/04/20 12:39:24;;;;;;;;;59.75;48.00;14.60;56.20;;;;;;5113980;28;8778;-61
2022/04/20 12:41:57;;;;;;;;;55.75;45.75;13.80;57.90;;;;;;5117487;27;8758;-63
2022/04/20 12:44:51;;;;;;;;;48.00;40.00;13.40;61.50;;;;;;5112650;28;8750;-63
2022/04/20 12:47:18;;;;;;;;;49.25;40.75;12.30;66.30;;;;;;5114307;28;8791;-62
2022/04/20 12:49:52;;;;;;;;;53.75;42.00;11.80;69.10;;;;;;5114746;28;8782;-72
2022/04/20 12:52:22;;;;;;;;;53.00;43.25;11.40;72.90;;;;;;5110683;28;8773;-66
2022/04/20 12:55:03;;;;;;;;;52.75;44.50;11.30;73.40;;;;;;5114557;28;8784;-68
2022/04/20 13:03:04;;;;;;;;;39.67;36.00;20.20;44.50;;;;;;5112022;28;9714;-61
2022/04/20 13:05:32;;;;;;;;;45.33;38.33;23.40;36.70;;;;;;5113492;28;8752;-59
2022/04/20 13:07:59;;;;;;;;;39.67;35.67;23.50;36.00;;;;;;5112713;28;8778;-60
2022/04/20 13:10:25;;;;;;;;;37.00;33.33;22.70;37.00;;;;;;5113066;28;8754;-57
2022/04/20 13:12:55;;;;;;;;;34.33;33.33;20.40;39.20;;;;;;5094453;28;8770;-60
2022/04/20 13:15:23;;;;;;;;;36.67;35.00;17.80;45.40;;;;;;5112206;28;8826;-62
2022/04/20 13:17:48;;;;;;;;;36.00;34.67;16.00;46.50;;;;;;5112237;28;8786;-63
2022/04/20 13:20:16;;;;;;;;;35.33;33.33;15.60;49.10;;;;;;5112994;28;8783;-62
2022/04/20 13:22:42;;;;;;;;;36.33;34.00;15.10;52.60;;;;;;5111515;28;8777;-61